Time;durP1;ratioP1;P1;durP2;ratioP2;P2;SDS_P1;SDS_P2;PMS_P1;PMS_P2;Temp;Humidity;BMP_temperature;BMP_pressure;BME280_temperature;BME280_humidity;BME280_pressure;Samples;Min_cycle;Max_cycle;Signal;HPM_P1;HPM_P2
2023/12/18 00:02:15;;;;;;;;;;;;;;;6.39;60.31;102319.44;5464786;32;34824;-71
2023/12/18 00:05:18;;;;;;;;;;;;;;;5.30;63.52;102326.88;5459233;32;34820;-72
2023/12/18 00:08:20;;;;;;;;;;;;;;;5.83;62.65;102331.87;5462417;32;35283;-70
2023/12/18 00:11:22;;;;;;;;;;;;;;;5.94;62.85;102325.06;5459823;32;35273;-74
2023/12/18 00:14:24;;;;;;;;;;;;;;;5.54;63.57;102327.19;5460174;32;34258;-72
2023/12/18 00:17:27;;;;;;;;;;;;;;;5.35;65.23;102338.25;5464329;32;34587;-72
2023/12/18 00:20:29;;;;;;;;;;;;;;;5.53;63.83;102330.63;5459320;32;34997;-72
2023/12/18 00:23:31;;;;;;;;;;;;;;;5.01;65.30;102329.94;5463824;32;34948;-69
2023/12/18 00:26:33;;;;;;;;;;;;;;;5.38;65.15;102335.66;5444404;32;35579;-70
2023/12/18 00:29:35;;;;;;;;;;;;;;;6.18;62.53;102320.12;5449358;32;35117;-71
2023/12/18 00:32:37;;;;;;;;;;;;;;;6.32;61.96;102317.63;5459763;32;34725;-73
2023/12/18 00:35:40;;;;;;;;;;;;;;;6.44;60.83;102315.13;5458958;32;34331;-70
2023/12/18 00:38:42;;;;;;;;;;;;;;;6.70;60.28;102317.94;5450157;32;35460;-71
2023/12/18 00:41:45;;;;;;;;;;;;;;;6.63;60.22;102304.81;5459484;32;34346;-72
2023/12/18 00:44:47;;;;;;;;;;;;;;;6.70;59.96;102311.84;5466657;32;35404;-71
2023/12/18 00:47:49;;;;;;;;;;;;;;;6.61;59.95;102307.41;5460675;32;34936;-72
2023/12/18 00:50:51;;;;;;;;;;;;;;;6.28;60.76;102313.22;5465723;32;35097;-71
2023/12/18 00:53:53;;;;;;;;;;;;;;;6.31;60.68;102301.91;5447319;32;35056;-70
2023/12/18 00:56:55;;;;;;;;;;;;;;;6.11;61.85;102307.84;5461874;32;34701;-69
2023/12/18 00:59:58;;;;;;;;;;;;;;;6.45;60.58;102306.44;5469636;32;34974;-70
2023/12/18 01:03:00;;;;;;;;;;;;;;;6.37;60.72;102307.19;5462498;32;35991;-69
2023/12/18 01:06:02;;;;;;;;;;;;;;;6.02;61.88;102309.50;5465755;32;35454;-72
2023/12/18 01:09:05;;;;;;;;;;;;;;;6.07;61.85;102318.25;5462030;32;34786;-70
2023/12/18 01:12:07;;;;;;;;;;;;;;;6.04;62.42;102311.25;5465015;32;34777;-69
2023/12/18 01:15:09;;;;;;;;;;;;;;;5.93;62.59;102318.97;5462650;32;34996;-70
2023/12/18 01:18:11;;;;;;;;;;;;;;;5.58;63.26;102320.25;5461092;32;35389;-71
2023/12/18 01:21:14;;;;;;;;;;;;;;;5.64;63.10;102323.81;5464776;32;34367;-70
2023/12/18 01:24:17;;;;;;;;;;;;;;;5.61;63.31;102322.94;5461409;32;34311;-73
2023/12/18 01:27:20;;;;;;;;;;;;;;;6.01;62.02;102324.28;5465173;32;34309;-71
2023/12/18 01:30:22;;;;;;;;;;;;;;;5.80;63.03;102317.06;5461433;32;35056;-70
2023/12/18 01:33:24;;;;;;;;;;;;;;;6.08;61.72;102313.03;5448906;32;35142;-72
2023/12/18 01:36:26;;;;;;;;;;;;;;;5.60;63.30;102315.94;5463124;32;35380;-72
2023/12/18 01:39:29;;;;;;;;;;;;;;;5.62;63.96;102314.25;5441635;32;34777;-71
2023/12/18 01:42:31;;;;;;;;;;;;;;;5.80;63.16;102309.25;5461960;32;35430;-72
2023/12/18 01:45:33;;;;;;;;;;;;;;;5.69;62.99;102288.22;5461032;32;35559;-70
2023/12/18 01:48:35;;;;;;;;;;;;;;;5.47;63.69;102304.47;5463502;32;34923;-69
2023/12/18 01:51:38;;;;;;;;;;;;;;;5.76;62.64;102299.62;5462469;32;34858;-73
2023/12/18 01:54:40;;;;;;;;;;;;;;;5.42;64.43;102317.47;5444686;32;35861;-72
2023/12/18 01:57:42;;;;;;;;;;;;;;;5.62;63.46;102309.03;5463584;32;34925;-71
2023/12/18 02:00:45;;;;;;;;;;;;;;;4.75;66.32;102315.63;5461617;32;34696;-73
2023/12/18 02:03:47;;;;;;;;;;;;;;;4.67;67.43;102299.88;5466263;32;35009;-70
2023/12/18 02:06:49;;;;;;;;;;;;;;;4.27;68.63;102308.78;5447125;32;34313;-71
2023/12/18 02:09:52;;;;;;;;;;;;;;;4.28;68.63;102306.19;5451826;32;34887;-71
2023/12/18 02:12:54;;;;;;;;;;;;;;;4.16;69.30;102303.38;5461187;32;35851;-72
2023/12/18 02:15:59;;;;;;;;;;;;;;;4.52;67.06;102297.06;5461891;32;34345;-71
2023/12/18 02:19:01;;;;;;;;;;;;;;;4.61;66.46;102300.66;5464656;32;34106;-70
2023/12/18 02:22:04;;;;;;;;;;;;;;;3.57;70.87;102303.12;5460506;32;34598;-70
2023/12/18 02:25:06;;;;;;;;;;;;;;;3.66;71.73;102286.81;5466246;32;36001;-70
2023/12/18 02:28:09;;;;;;;;;;;;;;;5.26;66.02;102278.13;5461056;32;34602;-69
2023/12/18 02:31:12;;;;;;;;;;;;;;;5.27;66.12;102295.53;5451595;32;34651;-73
2023/12/18 02:34:15;;;;;;;;;;;;;;;5.59;64.04;102283.75;5461041;32;34438;-71
2023/12/18 02:37:18;;;;;;;;;;;;;;;4.63;66.30;102285.06;5435446;32;34979;-72
2023/12/18 02:40:21;;;;;;;;;;;;;;;4.08;68.29;102273.75;5449531;32;35814;-74
2023/12/18 02:43:23;;;;;;;;;;;;;;;5.26;65.77;102271.19;5460907;32;34787;-71
2023/12/18 02:46:25;;;;;;;;;;;;;;;4.28;67.41;102281.91;5465869;32;34957;-70
2023/12/18 02:49:27;;;;;;;;;;;;;;;3.99;68.85;102278.75;5462178;32;34317;-71
2023/12/18 02:52:29;;;;;;;;;;;;;;;3.97;68.67;102286.56;5469182;32;34801;-71
2023/12/18 02:55:32;;;;;;;;;;;;;;;4.97;66.34;102285.56;5461904;32;35264;-72
2023/12/18 02:58:34;;;;;;;;;;;;;;;5.27;64.87;102293.78;5447476;32;34726;-71
2023/12/18 03:01:36;;;;;;;;;;;;;;;5.36;64.26;102299.16;5464715;32;34451;-71
2023/12/18 03:04:39;;;;;;;;;;;;;;;5.57;63.76;102301.13;5446798;32;34867;-71
2023/12/18 03:07:41;;;;;;;;;;;;;;;5.42;64.45;102288.78;5465325;32;35383;-72
2023/12/18 03:10:44;;;;;;;;;;;;;;;5.15;65.45;102291.03;5443955;32;35049;-70
2023/12/18 03:13:46;;;;;;;;;;;;;;;5.51;63.98;102292.34;5444399;32;34356;-73
2023/12/18 03:16:48;;;;;;;;;;;;;;;4.52;66.62;102292.72;5444028;32;34813;-72
2023/12/18 03:19:50;;;;;;;;;;;;;;;5.15;65.51;102291.03;5460505;32;36859;-70
2023/12/18 03:22:52;;;;;;;;;;;;;;;4.70;66.90;102296.44;5444572;32;34784;-70
2023/12/18 03:25:55;;;;;;;;;;;;;;;4.79;66.63;102286.19;5460945;32;35280;-71
2023/12/18 03:28:57;;;;;;;;;;;;;;;4.16;67.82;102298.16;5465539;32;34333;-72
2023/12/18 03:32:00;;;;;;;;;;;;;;;4.21;67.69;102293.06;5459883;32;35680;-72
2023/12/18 03:35:02;;;;;;;;;;;;;;;4.02;67.79;102286.66;5465385;32;34799;-71
2023/12/18 03:38:04;;;;;;;;;;;;;;;3.24;71.39;102285.13;5460644;32;34743;-71
2023/12/18 03:41:07;;;;;;;;;;;;;;;3.64;69.85;102276.41;5460405;32;35386;-70
2023/12/18 03:44:09;;;;;;;;;;;;;;;3.19;71.44;102285.00;5465155;32;34502;-70
2023/12/18 03:47:11;;;;;;;;;;;;;;;3.41;71.62;102288.91;5442988;32;34701;-74
2023/12/18 03:50:13;;;;;;;;;;;;;;;3.59;70.66;102271.94;5464023;32;35423;-71
2023/12/18 03:53:15;;;;;;;;;;;;;;;3.41;70.29;102281.13;5459104;32;35494;-71
2023/12/18 03:56:18;;;;;;;;;;;;;;;3.22;71.45;102266.00;5464846;32;34795;-71
2023/12/18 03:59:20;;;;;;;;;;;;;;;3.16;71.17;102269.38;5460565;32;35742;-70
2023/12/18 04:02:22;;;;;;;;;;;;;;;2.48;74.94;102267.78;5459447;32;35467;-72
2023/12/18 04:05:24;;;;;;;;;;;;;;;3.37;71.75;102270.66;5449543;32;34891;-73
2023/12/18 04:08:26;;;;;;;;;;;;;;;3.20;72.31;102273.75;5459885;32;34672;-71
2023/12/18 04:11:28;;;;;;;;;;;;;;;3.34;71.12;102268.84;5450183;32;35242;-69
2023/12/18 04:14:31;;;;;;;;;;;;;;;3.25;71.79;102261.75;5437036;32;34754;-70
2023/12/18 04:17:33;;;;;;;;;;;;;;;3.73;69.08;102266.16;5465279;32;34682;-71
2023/12/18 04:20:35;;;;;;;;;;;;;;;3.10;71.24;102265.75;5462365;32;35856;-69
2023/12/18 04:23:37;;;;;;;;;;;;;;;3.07;71.43;102261.34;5462194;32;34864;-72
2023/12/18 04:26:39;;;;;;;;;;;;;;;2.71;73.59;102262.31;5466660;32;34902;-71
2023/12/18 04:29:41;;;;;;;;;;;;;;;3.34;71.49;102254.97;5461551;32;34460;-73
2023/12/18 04:32:43;;;;;;;;;;;;;;;3.40;71.21;102253.37;5466546;32;34684;-71
2023/12/18 04:35:45;;;;;;;;;;;;;;;2.47;74.52;102253.06;5461153;32;34400;-71
2023/12/18 04:38:48;;;;;;;;;;;;;;;2.60;74.66;102258.59;5466541;32;34694;-70
2023/12/18 04:41:50;;;;;;;;;;;;;;;3.14;73.23;102263.25;5462098;32;34173;-73
2023/12/18 04:44:52;;;;;;;;;;;;;;;2.77;73.03;102248.59;5447177;32;34793;-69
2023/12/18 04:47:54;;;;;;;;;;;;;;;3.11;72.18;102255.41;5464757;32;34939;-70
2023/12/18 04:50:56;;;;;;;;;;;;;;;2.53;74.49;102256.69;5462468;32;34718;-71
2023/12/18 04:54:00;;;;;;;;;;;;;;;2.82;73.73;102265.13;5444667;32;35125;-70
2023/12/18 04:57:02;;;;;;;;;;;;;;;3.08;72.52;102262.22;5459407;32;35449;-71
2023/12/18 05:00:04;;;;;;;;;;;;;;;2.85;73.81;102261.75;5448278;32;34375;-70
2023/12/18 05:03:07;;;;;;;;;;;;;;;3.65;70.57;102253.87;5463027;32;35520;-72
2023/12/18 05:06:19;;;;;;;;;;;;;;;2.74;72.68;102258.91;5446792;32;34886;-69
2023/12/18 05:09:21;;;;;;;;;;;;;;;2.81;73.46;102259.91;5445516;32;34670;-72
2023/12/18 05:12:24;;;;;;;;;;;;;;;2.81;74.50;102265.09;5457483;32;34457;-71
2023/12/18 05:15:26;;;;;;;;;;;;;;;3.11;72.68;102260.59;5466250;32;34798;-72
2023/12/18 05:18:28;;;;;;;;;;;;;;;3.22;71.31;102260.78;5460989;32;35020;-70
2023/12/18 05:21:30;;;;;;;;;;;;;;;3.10;72.17;102251.06;5462438;32;34864;-70
2023/12/18 05:24:33;;;;;;;;;;;;;;;3.03;72.67;102256.97;5463663;32;34872;-69
2023/12/18 05:27:35;;;;;;;;;;;;;;;2.62;73.82;102250.81;5461230;32;35012;-71
2023/12/18 05:30:37;;;;;;;;;;;;;;;3.44;71.75;102255.22;5464731;32;34330;-71
2023/12/18 05:33:39;;;;;;;;;;;;;;;3.75;69.89;102254.06;5460923;32;35304;-71
2023/12/18 05:36:42;;;;;;;;;;;;;;;3.09;70.96;102257.09;5449328;32;34211;-72
2023/12/18 05:39:44;;;;;;;;;;;;;;;2.85;73.03;102256.56;5462055;32;35027;-71
2023/12/18 05:42:46;;;;;;;;;;;;;;;3.02;73.22;102260.37;5460914;32;34490;-72
2023/12/18 05:45:49;;;;;;;;;;;;;;;2.98;73.86;102262.03;5465408;32;34835;-72
2023/12/18 05:48:51;;;;;;;;;;;;;;;4.36;69.23;102254.25;5459459;32;35042;-70
2023/12/18 05:51:53;;;;;;;;;;;;;;;4.52;68.05;102256.25;5467600;32;35058;-72
2023/12/18 05:54:55;;;;;;;;;;;;;;;4.76;67.13;102260.94;5464273;32;34587;-69
2023/12/18 05:57:58;;;;;;;;;;;;;;;4.56;67.56;102262.38;5465111;32;34436;-72
2023/12/18 06:01:00;;;;;;;;;;;;;;;4.57;67.59;102253.72;5461435;32;34638;-71
2023/12/18 06:04:03;;;;;;;;;;;;;;;4.20;68.16;102255.75;5462304;32;34612;-72
2023/12/18 06:07:06;;;;;;;;;;;;;;;4.31;68.95;102248.97;5465265;32;34699;-70
2023/12/18 06:10:11;;;;;;;;;;;;;;;4.41;67.73;102257.81;5461214;32;34720;-70
2023/12/18 06:13:13;;;;;;;;;;;;;;;4.83;66.62;102246.28;5436987;32;34890;-69
2023/12/18 06:16:14;;;;;;;;;;;;;;;4.82;66.45;102247.13;5446316;32;34349;-73
2023/12/18 06:19:16;;;;;;;;;;;;;;;4.74;66.78;102252.25;5465464;32;34857;-70
2023/12/18 06:22:19;;;;;;;;;;;;;;;4.75;66.63;102259.19;5460812;32;34976;-69
2023/12/18 06:25:21;;;;;;;;;;;;;;;4.65;67.06;102256.44;5460522;32;34626;-72
2023/12/18 06:28:23;;;;;;;;;;;;;;;4.15;69.08;102269.53;5465894;32;34566;-73
2023/12/18 06:31:24;;;;;;;;;;;;;;;4.72;67.42;102259.16;5445813;32;33273;-70
2023/12/18 06:34:27;;;;;;;;;;;;;;;4.82;66.72;102274.06;5466969;32;34219;-71
2023/12/18 06:37:29;;;;;;;;;;;;;;;5.03;65.55;102283.94;5461838;32;35142;-72
2023/12/18 06:40:32;;;;;;;;;;;;;;;4.67;66.26;102288.59;5464312;32;34597;-73
2023/12/18 06:43:34;;;;;;;;;;;;;;;4.62;67.04;102283.31;5456861;32;34710;-72
2023/12/18 06:46:36;;;;;;;;;;;;;;;4.22;67.71;102285.25;5453577;32;36434;-72
2023/12/18 06:49:38;;;;;;;;;;;;;;;4.68;67.20;102278.19;5462648;32;34678;-81
2023/12/18 06:52:43;;;;;;;;;;;;;;;4.74;66.21;102283.50;5460657;32;34749;-76
2023/12/18 06:55:45;;;;;;;;;;;;;;;5.08;65.36;102291.78;5450009;32;35092;-78
2023/12/18 06:58:47;;;;;;;;;;;;;;;4.85;65.44;102300.16;5452144;32;34387;-85
2023/12/18 07:01:49;;;;;;;;;;;;;;;4.49;67.56;102297.84;5453718;32;34311;-88
2023/12/18 07:04:51;;;;;;;;;;;;;;;4.68;67.08;102301.63;5446571;32;34390;-75
2023/12/18 07:07:53;;;;;;;;;;;;;;;4.78;66.97;102295.72;5462596;32;34205;-89
2023/12/18 07:10:57;;;;;;;;;;;;;;;4.20;68.57;102300.00;5454681;32;36119;-82
2023/12/18 07:13:59;;;;;;;;;;;;;;;3.94;69.17;102301.25;5462321;32;34220;-78
2023/12/18 07:17:01;;;;;;;;;;;;;;;4.70;67.89;102293.84;5464113;32;34174;-82
2023/12/18 07:20:03;;;;;;;;;;;;;;;4.02;70.61;102294.44;5464935;32;34232;-75
2023/12/18 07:23:05;;;;;;;;;;;;;;;4.19;70.16;102292.16;5463311;32;34265;-88
2023/12/18 07:26:12;;;;;;;;;;;;;;;4.34;68.69;102298.50;5456053;32;35707;-73
2023/12/18 07:29:14;;;;;;;;;;;;;;;4.91;67.83;102302.00;5447230;32;35673;-73
2023/12/18 07:32:16;;;;;;;;;;;;;;;4.06;69.96;102304.06;5466937;32;34901;-81
2023/12/18 07:35:18;;;;;;;;;;;;;;;4.34;69.77;102297.63;5453632;32;35048;-81
2023/12/18 07:38:20;;;;;;;;;;;;;;;4.51;68.80;102293.56;5459023;32;34278;-77
2023/12/18 07:41:22;;;;;;;;;;;;;;;4.66;68.83;102292.94;5460559;32;35251;-76
2023/12/18 07:44:24;;;;;;;;;;;;;;;5.23;65.99;102283.31;5464770;32;34495;-76
2023/12/18 07:47:26;;;;;;;;;;;;;;;4.31;67.69;102285.41;5434089;32;34838;-84
2023/12/18 07:50:28;;;;;;;;;;;;;;;4.34;68.18;102288.06;5433272;32;33694;-75
2023/12/18 07:53:30;;;;;;;;;;;;;;;4.52;68.15;102294.44;5447197;32;33785;-78
2023/12/18 07:56:35;;;;;;;;;;;;;;;5.18;66.31;102282.38;5457276;32;34314;-78
2023/12/18 07:59:39;;;;;;;;;;;;;;;5.56;63.84;102283.75;5452750;32;34324;-80
2023/12/18 08:02:41;;;;;;;;;;;;;;;5.75;63.16;102279.59;5462137;32;35663;-83
2023/12/18 08:05:44;;;;;;;;;;;;;;;5.67;63.42;102270.81;5458686;32;35812;-81
2023/12/18 08:08:46;;;;;;;;;;;;;;;5.30;65.41;102278.22;5445959;32;34378;-82
2023/12/18 08:11:49;;;;;;;;;;;;;;;5.91;63.10;102272.84;5460518;32;35588;-81
2023/12/18 08:14:51;;;;;;;;;;;;;;;5.34;64.21;102274.75;5465204;32;34313;-88
2023/12/18 08:17:52;;;;;;;;;;;;;;;4.47;68.28;102290.87;5457979;32;34229;-72
2023/12/18 08:20:55;;;;;;;;;;;;;;;3.87;70.61;102294.19;5455226;32;34558;-76
2023/12/18 08:23:57;;;;;;;;;;;;;;;4.33;70.80;102291.53;5463069;32;35539;-88
2023/12/18 08:26:59;;;;;;;;;;;;;;;4.91;68.60;102278.53;5467840;32;35635;-84
2023/12/18 08:30:05;;;;;;;;;;;;;;;5.07;67.26;102272.69;5462826;32;34270;-88
2023/12/18 08:33:07;;;;;;;;;;;;;;;6.05;62.83;102262.53;5456360;32;34180;-79
2023/12/18 08:36:10;;;;;;;;;;;;;;;5.79;63.92;102262.22;5462106;32;34336;-73
2023/12/18 08:39:12;;;;;;;;;;;;;;;5.72;64.91;102270.00;5458670;32;34229;-75
2023/12/18 08:42:14;;;;;;;;;;;;;;;5.70;64.54;102281.28;5449146;32;35607;-82
2023/12/18 08:45:17;;;;;;;;;;;;;;;4.98;67.28;102287.31;5431725;32;34195;-80
2023/12/18 08:48:19;;;;;;;;;;;;;;;4.67;69.67;102292.06;5456307;32;34151;-78
2023/12/18 08:51:21;;;;;;;;;;;;;;;5.10;68.04;102288.38;5458265;32;34394;-79
2023/12/18 08:54:23;;;;;;;;;;;;;;;4.86;68.32;102294.09;5457301;32;35703;-81
2023/12/18 08:57:27;;;;;;;;;;;;;;;5.06;67.67;102296.12;5462389;32;34299;-79
2023/12/18 09:00:29;;;;;;;;;;;;;;;5.12;66.70;102298.81;5455215;32;34388;-81
2023/12/18 09:03:35;;;;;;;;;;;;;;;5.33;67.30;102288.66;5460898;32;35656;-79
2023/12/18 09:06:38;;;;;;;;;;;;;;;6.24;63.25;102278.38;5432487;32;33424;-76
2023/12/18 09:09:43;;;;;;;;;;;;;;;5.88;63.21;102289.31;5450235;32;35670;-77
2023/12/18 09:12:45;;;;;;;;;;;;;;;5.49;64.82;102281.03;5465599;32;34756;-74
2023/12/18 09:15:48;;;;;;;;;;;;;;;5.64;64.89;102281.22;5442776;32;35556;-70
2023/12/18 09:18:50;;;;;;;;;;;;;;;5.80;64.74;102269.22;5445569;32;35963;-78
2023/12/18 09:21:53;;;;;;;;;;;;;;;5.57;64.81;102268.97;5458024;32;32735;-74
2023/12/18 09:24:55;;;;;;;;;;;;;;;5.79;64.51;102273.53;5454478;32;34563;-80
2023/12/18 09:27:57;;;;;;;;;;;;;;;5.26;64.99;102271.19;5443071;32;34805;-74
2023/12/18 09:30:59;;;;;;;;;;;;;;;6.02;63.45;102257.28;5456812;32;32912;-85
2023/12/18 09:34:02;;;;;;;;;;;;;;;5.82;64.57;102257.94;5461847;32;34266;-72
2023/12/18 09:37:04;;;;;;;;;;;;;;;6.17;63.15;102249.59;5443366;32;34801;-75
2023/12/18 09:40:07;;;;;;;;;;;;;;;6.36;62.12;102243.66;5450771;32;34418;-77
2023/12/18 09:43:09;;;;;;;;;;;;;;;6.45;61.84;102237.63;5445495;32;34600;-76
2023/12/18 09:46:11;;;;;;;;;;;;;;;6.49;61.83;102229.81;5452435;32;35493;-73
2023/12/18 09:49:18;;;;;;;;;;;;;;;5.24;65.98;102239.03;5443301;32;34655;-81
2023/12/18 09:52:24;;;;;;;;;;;;;;;6.16;63.87;102226.94;5458747;32;34362;-68
2023/12/18 09:55:26;;;;;;;;;;;;;;;4.96;67.23;102234.28;5458198;32;34768;-73
2023/12/18 09:58:28;;;;;;;;;;;;;;;5.06;67.73;102228.34;5459389;32;35537;-69
2023/12/18 10:01:33;;;;;;;;;;;;;;;5.74;65.98;102212.63;5444093;32;34208;-73
2023/12/18 10:04:35;;;;;;;;;;;;;;;5.59;66.15;102215.94;5438670;32;35130;-71
2023/12/18 10:07:37;;;;;;;;;;;;;;;5.87;65.05;102208.41;5453330;32;34156;-75
2023/12/18 10:10:39;;;;;;;;;;;;;;;6.83;62.40;102211.75;5457111;32;34906;-74
2023/12/18 10:13:43;;;;;;;;;;;;;;;6.58;62.84;102202.03;5453445;32;34580;-74
2023/12/18 10:16:47;;;;;;;;;;;;;;;6.93;61.24;102204.81;5442967;32;34760;-71
2023/12/18 10:19:50;;;;;;;;;;;;;;;7.40;59.15;102201.50;5423979;32;866065;-77
2023/12/18 10:22:52;;;;;;;;;;;;;;;7.63;58.56;102191.97;5441643;32;35160;-77
2023/12/18 10:25:54;;;;;;;;;;;;;;;6.11;62.00;102202.53;5451136;32;34154;-75
2023/12/18 10:28:56;;;;;;;;;;;;;;;7.47;59.19;102196.31;5457948;32;36272;-74
2023/12/18 10:31:58;;;;;;;;;;;;;;;7.67;58.32;102182.41;5454732;32;35864;-77
2023/12/18 10:35:00;;;;;;;;;;;;;;;7.61;58.96;102196.34;5457111;32;34307;-75
2023/12/18 10:38:02;;;;;;;;;;;;;;;7.87;57.31;102181.53;5445973;32;34374;-76
2023/12/18 10:41:04;;;;;;;;;;;;;;;8.46;56.10;102184.16;5454689;32;34390;-75
2023/12/18 10:44:06;;;;;;;;;;;;;;;8.22;56.68;102178.03;5446480;32;34314;-72
2023/12/18 10:47:08;;;;;;;;;;;;;;;7.38;58.77;102175.34;5439537;32;33051;-75
2023/12/18 10:50:11;;;;;;;;;;;;;;;8.36;56.81;102178.03;5456159;32;34280;-84
2023/12/18 10:53:13;;;;;;;;;;;;;;;8.41;56.42;102161.44;5447287;32;34332;-68
2023/12/18 10:56:16;;;;;;;;;;;;;;;8.62;55.35;102155.28;5456959;32;35406;-69
2023/12/18 10:59:18;;;;;;;;;;;;;;;8.89;54.99;102150.84;5461855;32;35100;-76
2023/12/18 11:02:20;;;;;;;;;;;;;;;9.14;53.71;102148.94;5443150;32;34563;-75
2023/12/18 11:05:23;;;;;;;;;;;;;;;8.92;54.52;102145.56;5462525;32;35642;-70
2023/12/18 11:08:25;;;;;;;;;;;;;;;8.81;55.16;102147.34;5455927;32;35445;-72
2023/12/18 11:11:27;;;;;;;;;;;;;;;8.43;56.56;102147.47;5444686;32;34290;-75
2023/12/18 11:14:59;;;;;;;;;;;;;;;8.49;56.48;102145.69;5448066;32;33103;-78
2023/12/18 11:18:04;;;;;;;;;;;;;;;8.71;55.96;102135.19;5415184;32;34918;-70
2023/12/18 11:21:06;;;;;;;;;;;;;;;9.00;55.50;102125.41;5459612;32;34584;-70
2023/12/18 11:24:09;;;;;;;;;;;;;;;9.05;55.05;102117.53;5441775;32;33411;-73
2023/12/18 11:27:12;;;;;;;;;;;;;;;9.15;53.70;102114.87;5451872;32;34270;-75
2023/12/18 11:30:24;;;;;;;;;;;;;;;9.99;51.93;102105.47;5447466;32;35352;-82
2023/12/18 11:33:26;;;;;;;;;;;;;;;10.43;51.33;102101.53;5442185;32;33669;-73
2023/12/18 11:36:43;;;;;;;;;;;;;;;10.71;51.11;102091.59;5459791;32;34323;-73
2023/12/18 11:39:45;;;;;;;;;;;;;;;11.12;48.84;102094.50;5457156;32;34734;-78
2023/12/18 11:42:47;;;;;;;;;;;;;;;11.73;46.92;102097.13;5449722;32;35513;-79
2023/12/18 11:45:49;;;;;;;;;;;;;;;11.60;47.54;102091.19;5451745;32;35666;-82
2023/12/18 11:48:53;;;;;;;;;;;;;;;11.61;46.35;102095.53;5450185;32;35752;-75
2023/12/18 11:51:58;;;;;;;;;;;;;;;12.14;47.42;102091.13;5436301;32;34336;-73
2023/12/18 11:55:12;;;;;;;;;;;;;;;12.90;43.85;102073.75;5458887;32;34258;-73
2023/12/18 11:58:15;;;;;;;;;;;;;;;13.72;42.53;102068.34;5442776;32;34846;-77
2023/12/18 12:01:19;;;;;;;;;;;;;;;14.08;41.49;102070.91;5454091;32;34266;-73
2023/12/18 12:04:21;;;;;;;;;;;;;;;14.48;41.01;102059.25;5442186;32;34751;-72
2023/12/18 12:07:23;;;;;;;;;;;;;;;17.71;35.35;102046.91;5455720;32;34210;-74
2023/12/18 12:10:30;;;;;;;;;;;;;;;19.50;32.26;102046.59;5454785;32;34818;-75
2023/12/18 12:13:32;;;;;;;;;;;;;;;18.93;32.30;102049.38;5459457;32;34681;-74
2023/12/18 12:16:34;;;;;;;;;;;;;;;19.74;30.89;102034.72;5455333;32;34725;-71
2023/12/18 12:19:37;;;;;;;;;;;;;;;20.28;29.33;102035.41;5448602;32;34173;-73
2023/12/18 12:22:39;;;;;;;;;;;;;;;17.45;34.12;102044.41;5456129;32;34913;-75
2023/12/18 12:25:41;;;;;;;;;;;;;;;18.18;32.90;102028.00;5459298;32;34904;-76
2023/12/18 12:28:43;;;;;;;;;;;;;;;18.90;31.90;102020.22;5458319;32;35406;-79
2023/12/18 12:31:45;;;;;;;;;;;;;;;19.83;30.07;102001.34;5441052;32;34925;-73
2023/12/18 12:35:00;;;;;;;;;;;;;;;17.91;32.94;102006.16;5459138;32;34057;-72
2023/12/18 12:38:03;;;;;;;;;;;;;;;19.73;30.54;102006.31;5459791;32;34148;-77
2023/12/18 12:41:05;;;;;;;;;;;;;;;20.69;28.64;101994.06;5459612;32;36125;-75
2023/12/18 12:44:08;;;;;;;;;;;;;;;19.26;30.43;101998.03;5454910;32;34513;-75
2023/12/18 12:47:11;;;;;;;;;;;;;;;17.36;33.72;101991.66;5444833;32;34421;-71
2023/12/18 12:50:15;;;;;;;;;;;;;;;18.12;33.19;101989.22;5457492;32;34600;-73
2023/12/18 12:53:17;;;;;;;;;;;;;;;19.25;30.52;101980.28;5462894;32;34248;-73
2023/12/18 12:56:19;;;;;;;;;;;;;;;20.27;29.67;101963.41;5455182;32;34147;-71
2023/12/18 12:59:21;;;;;;;;;;;;;;;20.81;28.43;101958.66;5459613;32;34365;-73
2023/12/18 13:02:25;;;;;;;;;;;;;;;18.22;32.00;101970.16;5446649;32;34217;-73
2023/12/18 13:05:28;;;;;;;;;;;;;;;16.37;35.17;101972.59;5445499;32;35170;-74
2023/12/18 13:08:30;;;;;;;;;;;;;;;14.78;38.61;101975.44;5435943;32;34934;-76
2023/12/18 13:11:37;;;;;;;;;;;;;;;14.02;40.14;101975.91;5460957;32;34307;-75
2023/12/18 13:14:39;;;;;;;;;;;;;;;13.91;40.69;101972.69;5438609;32;34458;-77
2023/12/18 13:17:41;;;;;;;;;;;;;;;13.51;41.71;101971.97;5469611;32;35031;-75
2023/12/18 13:20:46;;;;;;;;;;;;;;;12.23;44.72;101974.97;5448452;32;36626;-77
2023/12/18 13:23:48;;;;;;;;;;;;;;;12.56;44.38;101976.03;5451130;32;34423;-76
2023/12/18 13:26:51;;;;;;;;;;;;;;;12.67;44.43;101975.78;5468043;32;34561;-69
2023/12/18 13:29:53;;;;;;;;;;;;;;;12.34;45.12;101970.34;5450787;32;36044;-75
2023/12/18 13:32:56;;;;;;;;;;;;;;;12.04;46.10;101971.81;5447244;32;33987;-72
2023/12/18 13:35:59;;;;;;;;;;;;;;;11.94;46.44;101972.94;5461993;32;35532;-72
2023/12/18 13:39:03;;;;;;;;;;;;;;;11.89;46.60;101964.25;5467700;32;35481;-71
2023/12/18 13:42:05;;;;;;;;;;;;;;;12.07;46.36;101965.66;5445280;32;35431;-73
2023/12/18 13:45:07;;;;;;;;;;;;;;;12.24;45.68;101963.53;5450400;32;35433;-73
2023/12/18 13:48:10;;;;;;;;;;;;;;;11.90;46.64;101958.06;5460947;32;34695;-75
2023/12/18 13:51:12;;;;;;;;;;;;;;;11.32;48.19;101959.09;5447452;32;34780;-75
2023/12/18 13:54:14;;;;;;;;;;;;;;;11.50;47.91;101960.56;5464218;32;34331;-78
2023/12/18 13:57:19;;;;;;;;;;;;;;;11.61;49.02;101955.97;5448064;32;35048;-76
2023/12/18 14:00:21;;;;;;;;;;;;;;;12.70;46.18;101944.94;5454371;32;34365;-72
2023/12/18 14:03:26;;;;;;;;;;;;;;;14.46;41.97;101937.59;5455926;32;34383;-78
2023/12/18 14:06:28;;;;;;;;;;;;;;;15.81;38.93;101935.78;5446037;32;34354;-80
2023/12/18 14:09:30;;;;;;;;;;;;;;;15.59;38.76;101933.00;5452949;32;34439;-73
2023/12/18 14:12:33;;;;;;;;;;;;;;;15.39;38.74;101941.63;5452449;32;35433;-80
2023/12/18 14:15:37;;;;;;;;;;;;;;;14.57;40.12;101948.72;5463977;32;35253;-77
2023/12/18 14:18:40;;;;;;;;;;;;;;;13.71;41.94;101949.44;5441553;32;34721;-78
2023/12/18 14:21:42;;;;;;;;;;;;;;;12.88;44.36;101946.28;5447653;32;35419;-76
2023/12/18 14:24:44;;;;;;;;;;;;;;;12.58;45.05;101937.31;5457657;32;34790;-76
2023/12/18 14:27:47;;;;;;;;;;;;;;;12.52;45.65;101944.47;5447985;32;34777;-77
2023/12/18 14:30:49;;;;;;;;;;;;;;;12.03;47.29;101942.88;5462539;32;34796;-77
2023/12/18 14:33:51;;;;;;;;;;;;;;;11.72;48.07;101954.00;5447230;32;34840;-78
2023/12/18 14:36:53;;;;;;;;;;;;;;;11.54;49.24;101952.59;5461228;32;36266;-77
2023/12/18 14:39:55;;;;;;;;;;;;;;;11.41;49.55;101958.97;5454124;32;34432;-74
2023/12/18 14:42:57;;;;;;;;;;;;;;;11.48;49.29;101943.94;5456554;32;35811;-75
2023/12/18 14:45:59;;;;;;;;;;;;;;;11.32;49.97;101949.44;5461072;32;35662;-72
2023/12/18 14:49:02;;;;;;;;;;;;;;;10.96;51.45;101950.94;5445367;32;34433;-74
2023/12/18 14:52:04;;;;;;;;;;;;;;;11.24;50.92;101953.97;5460886;32;34874;-76
2023/12/18 14:55:07;;;;;;;;;;;;;;;10.93;51.83;101965.87;5460016;32;33189;-75
2023/12/18 14:58:09;;;;;;;;;;;;;;;10.74;52.42;101968.78;5463834;32;34422;-72
2023/12/18 15:01:11;;;;;;;;;;;;;;;10.73;52.72;101972.31;5461548;32;34929;-86
2023/12/18 15:04:13;;;;;;;;;;;;;;;10.73;52.89;101967.06;5464444;32;34427;-73
2023/12/18 15:07:23;;;;;;;;;;;;;;;10.57;53.43;101973.44;5449262;32;34632;-77
2023/12/18 15:10:26;;;;;;;;;;;;;;;10.14;54.62;101973.94;5443589;32;35264;-72
2023/12/18 15:13:28;;;;;;;;;;;;;;;10.13;55.08;101979.22;5462075;32;34287;-78
2023/12/18 15:16:31;;;;;;;;;;;;;;;10.21;54.86;101974.75;5462887;32;35207;-72
2023/12/18 15:19:40;;;;;;;;;;;;;;;10.41;54.43;101980.66;5438631;32;36084;-74
2023/12/18 15:22:47;;;;;;;;;;;;;;;10.35;54.64;101977.22;5462402;32;34212;-76
2023/12/18 15:25:49;;;;;;;;;;;;;;;10.52;54.35;101975.25;5461675;32;34720;-73
2023/12/18 15:28:54;;;;;;;;;;;;;;;10.12;55.49;101986.25;5458154;32;34223;-75
2023/12/18 15:31:57;;;;;;;;;;;;;;;10.55;54.34;101983.97;5462125;32;34394;-73
2023/12/18 15:35:02;;;;;;;;;;;;;;;10.20;55.63;101978.28;5464156;32;34284;-71
2023/12/18 15:38:04;;;;;;;;;;;;;;;9.72;56.97;101972.66;5461406;32;35477;-72
2023/12/18 15:41:06;;;;;;;;;;;;;;;9.75;57.23;101972.66;5463462;32;34196;-72
2023/12/18 15:44:08;;;;;;;;;;;;;;;9.91;57.09;101973.34;5458874;32;34328;-78
2023/12/18 15:47:10;;;;;;;;;;;;;;;10.37;55.89;101960.56;5446491;32;35087;-72